sensor_id;sensor_type;location;lat;lon;timestamp;P1;durP1;ratioP1;P2;durP2;ratioP2
51901;SDS011;37929;53.218;6.548;2022-07-22T00:02:02;8.75;;;3.75;;
51901;SDS011;37929;53.218;6.548;2022-07-22T00:04:28;11.55;;;4.65;;
51901;SDS011;37929;53.218;6.548;2022-07-22T00:06:54;8.75;;;4.25;;
51901;SDS011;37929;53.218;6.548;2022-07-22T00:09:23;10.23;;;3.40;;
51901;SDS011;37929;53.218;6.548;2022-07-22T00:11:52;10.57;;;4.22;;
51901;SDS011;37929;53.218;6.548;2022-07-22T00:14:23;9.15;;;3.13;;
51901;SDS011;37929;53.218;6.548;2022-07-22T00:16:52;11.25;;;4.38;;
51901;SDS011;37929;53.218;6.548;2022-07-22T00:19:18;12.70;;;4.25;;
51901;SDS011;37929;53.218;6.548;2022-07-22T00:21:52;11.30;;;3.83;;
51901;SDS011;37929;53.218;6.548;2022-07-22T00:24:18;11.00;;;4.28;;
51901;SDS011;37929;53.218;6.548;2022-07-22T00:26:47;10.13;;;4.20;;
51901;SDS011;37929;53.218;6.548;2022-07-22T00:29:16;12.50;;;3.60;;
51901;SDS011;37929;53.218;6.548;2022-07-22T00:31:48;12.18;;;3.83;;
51901;SDS011;37929;53.218;6.548;2022-07-22T00:34:14;7.68;;;2.90;;
51901;SDS011;37929;53.218;6.548;2022-07-22T00:36:51;12.45;;;3.72;;
51901;SDS011;37929;53.218;6.548;2022-07-22T00:39:20;7.70;;;3.22;;
51901;SDS011;37929;53.218;6.548;2022-07-22T00:41:53;6.88;;;2.75;;
51901;SDS011;37929;53.218;6.548;2022-07-22T00:44:28;9.40;;;2.88;;
51901;SDS011;37929;53.218;6.548;2022-07-22T00:46:53;9.02;;;3.10;;
51901;SDS011;37929;53.218;6.548;2022-07-22T00:49:19;10.48;;;3.38;;
51901;SDS011;37929;53.218;6.548;2022-07-22T00:51:46;10.65;;;3.55;;
51901;SDS011;37929;53.218;6.548;2022-07-22T00:54:14;12.77;;;3.58;;
51901;SDS011;37929;53.218;6.548;2022-07-22T00:56:40;8.90;;;2.72;;
51901;SDS011;37929;53.218;6.548;2022-07-22T00:59:10;7.55;;;3.00;;
51901;SDS011;37929;53.218;6.548;2022-07-22T01:01:37;12.07;;;3.25;;
51901;SDS011;37929;53.218;6.548;2022-07-22T01:04:03;9.02;;;3.00;;
51901;SDS011;37929;53.218;6.548;2022-07-22T01:06:47;8.30;;;3.05;;
51901;SDS011;37929;53.218;6.548;2022-07-22T01:09:13;6.07;;;2.85;;
51901;SDS011;37929;53.218;6.548;2022-07-22T01:11:40;8.98;;;3.17;;
51901;SDS011;37929;53.218;6.548;2022-07-22T01:14:09;8.00;;;3.03;;
51901;SDS011;37929;53.218;6.548;2022-07-22T01:16:35;7.50;;;3.40;;
51901;SDS011;37929;53.218;6.548;2022-07-22T01:19:01;8.98;;;2.90;;
51901;SDS011;37929;53.218;6.548;2022-07-22T01:21:27;11.02;;;2.95;;
51901;SDS011;37929;53.218;6.548;2022-07-22T01:23:53;7.30;;;2.85;;
51901;SDS011;37929;53.218;6.548;2022-07-22T01:26:19;9.77;;;3.08;;
51901;SDS011;37929;53.218;6.548;2022-07-22T01:28:47;9.90;;;2.97;;
51901;SDS011;37929;53.218;6.548;2022-07-22T01:31:13;6.68;;;2.90;;
51901;SDS011;37929;53.218;6.548;2022-07-22T01:33:38;7.65;;;2.70;;
51901;SDS011;37929;53.218;6.548;2022-07-22T01:36:04;6.55;;;2.70;;
51901;SDS011;37929;53.218;6.548;2022-07-22T01:38:34;6.93;;;2.28;;
51901;SDS011;37929;53.218;6.548;2022-07-22T01:41:00;8.65;;;2.50;;
51901;SDS011;37929;53.218;6.548;2022-07-22T01:43:26;10.50;;;2.60;;
51901;SDS011;37929;53.218;6.548;2022-07-22T01:45:52;7.22;;;2.55;;
51901;SDS011;37929;53.218;6.548;2022-07-22T01:48:19;7.45;;;2.40;;
51901;SDS011;37929;53.218;6.548;2022-07-22T01:50:45;6.10;;;2.42;;
51901;SDS011;37929;53.218;6.548;2022-07-22T01:53:11;7.53;;;2.22;;
51901;SDS011;37929;53.218;6.548;2022-07-22T01:55:37;7.82;;;1.88;;
51901;SDS011;37929;53.218;6.548;2022-07-22T01:58:06;6.13;;;2.30;;
51901;SDS011;37929;53.218;6.548;2022-07-22T02:00:32;5.65;;;2.10;;
51901;SDS011;37929;53.218;6.548;2022-07-22T02:02:59;11.10;;;2.47;;
51901;SDS011;37929;53.218;6.548;2022-07-22T02:05:25;6.20;;;2.30;;
51901;SDS011;37929;53.218;6.548;2022-07-22T02:07:51;7.05;;;2.25;;
51901;SDS011;37929;53.218;6.548;2022-07-22T02:10:17;6.57;;;2.20;;
51901;SDS011;37929;53.218;6.548;2022-07-22T02:12:43;8.68;;;2.25;;
51901;SDS011;37929;53.218;6.548;2022-07-22T02:15:10;8.43;;;2.40;;
51901;SDS011;37929;53.218;6.548;2022-07-22T02:17:36;5.50;;;2.30;;
51901;SDS011;37929;53.218;6.548;2022-07-22T02:20:04;8.05;;;2.30;;
51901;SDS011;37929;53.218;6.548;2022-07-22T02:22:33;7.55;;;2.40;;
51901;SDS011;37929;53.218;6.548;2022-07-22T02:24:58;6.18;;;2.35;;
51901;SDS011;37929;53.218;6.548;2022-07-22T02:27:24;6.38;;;2.03;;
51901;SDS011;37929;53.218;6.548;2022-07-22T02:29:50;10.07;;;2.50;;
51901;SDS011;37929;53.218;6.548;2022-07-22T02:32:24;7.05;;;2.08;;
51901;SDS011;37929;53.218;6.548;2022-07-22T02:34:50;6.45;;;2.00;;
51901;SDS011;37929;53.218;6.548;2022-07-22T02:37:18;7.82;;;3.45;;
51901;SDS011;37929;53.218;6.548;2022-07-22T02:42:31;6.50;;;3.00;;
51901;SDS011;37929;53.218;6.548;2022-07-22T02:44:57;6.78;;;2.22;;
51901;SDS011;37929;53.218;6.548;2022-07-22T02:47:26;7.25;;;2.55;;
51901;SDS011;37929;53.218;6.548;2022-07-22T02:49:55;8.48;;;2.58;;
51901;SDS011;37929;53.218;6.548;2022-07-22T02:52:21;7.63;;;2.17;;
51901;SDS011;37929;53.218;6.548;2022-07-22T02:54:49;6.03;;;2.20;;
51901;SDS011;37929;53.218;6.548;2022-07-22T02:57:33;5.50;;;2.15;;
51901;SDS011;37929;53.218;6.548;2022-07-22T03:00:02;4.38;;;1.92;;
51901;SDS011;37929;53.218;6.548;2022-07-22T03:02:29;5.30;;;1.90;;
51901;SDS011;37929;53.218;6.548;2022-07-22T03:05:06;5.13;;;2.00;;
51901;SDS011;37929;53.218;6.548;2022-07-22T03:07:37;4.13;;;1.80;;
51901;SDS011;37929;53.218;6.548;2022-07-22T03:10:06;10.27;;;2.72;;
51901;SDS011;37929;53.218;6.548;2022-07-22T03:12:36;6.40;;;2.10;;
51901;SDS011;37929;53.218;6.548;2022-07-22T03:15:05;6.40;;;2.00;;
51901;SDS011;37929;53.218;6.548;2022-07-22T03:17:37;5.28;;;2.08;;
51901;SDS011;37929;53.218;6.548;2022-07-22T03:20:07;8.02;;;2.50;;
51901;SDS011;37929;53.218;6.548;2022-07-22T03:22:34;5.82;;;2.35;;
51901;SDS011;37929;53.218;6.548;2022-07-22T03:25:11;7.75;;;2.50;;
51901;SDS011;37929;53.218;6.548;2022-07-22T03:28:04;5.35;;;2.05;;
51901;SDS011;37929;53.218;6.548;2022-07-22T03:30:33;4.43;;;2.15;;
51901;SDS011;37929;53.218;6.548;2022-07-22T03:32:59;8.45;;;2.50;;
51901;SDS011;37929;53.218;6.548;2022-07-22T03:35:24;4.50;;;2.20;;
51901;SDS011;37929;53.218;6.548;2022-07-22T03:37:50;5.20;;;2.25;;
51901;SDS011;37929;53.218;6.548;2022-07-22T03:40:18;5.72;;;2.33;;
51901;SDS011;37929;53.218;6.548;2022-07-22T03:42:44;6.05;;;2.83;;
51901;SDS011;37929;53.218;6.548;2022-07-22T03:45:10;5.18;;;2.00;;
51901;SDS011;37929;53.218;6.548;2022-07-22T03:47:39;8.75;;;2.55;;
51901;SDS011;37929;53.218;6.548;2022-07-22T03:50:05;4.57;;;2.10;;
51901;SDS011;37929;53.218;6.548;2022-07-22T03:52:34;7.47;;;2.38;;
51901;SDS011;37929;53.218;6.548;2022-07-22T03:55:00;6.55;;;2.00;;
51901;SDS011;37929;53.218;6.548;2022-07-22T03:57:26;7.20;;;2.10;;
51901;SDS011;37929;53.218;6.548;2022-07-22T03:59:54;4.63;;;2.20;;
51901;SDS011;37929;53.218;6.548;2022-07-22T04:02:20;6.00;;;2.20;;
51901;SDS011;37929;53.218;6.548;2022-07-22T04:04:45;7.90;;;2.17;;
51901;SDS011;37929;53.218;6.548;2022-07-22T04:07:12;6.95;;;2.30;;
51901;SDS011;37929;53.218;6.548;2022-07-22T04:09:43;7.05;;;1.85;;
51901;SDS011;37929;53.218;6.548;2022-07-22T04:12:11;5.07;;;2.20;;
51901;SDS011;37929;53.218;6.548;2022-07-22T04:14:37;5.40;;;2.25;;
51901;SDS011;37929;53.218;6.548;2022-07-22T04:17:03;6.65;;;2.05;;
51901;SDS011;37929;53.218;6.548;2022-07-22T04:19:29;8.43;;;2.38;;
51901;SDS011;37929;53.218;6.548;2022-07-22T04:21:54;5.55;;;2.10;;
51901;SDS011;37929;53.218;6.548;2022-07-22T04:24:20;6.72;;;2.40;;
51901;SDS011;37929;53.218;6.548;2022-07-22T04:26:46;6.13;;;2.33;;
51901;SDS011;37929;53.218;6.548;2022-07-22T04:29:12;8.18;;;2.40;;
51901;SDS011;37929;53.218;6.548;2022-07-22T04:31:38;5.40;;;2.30;;
51901;SDS011;37929;53.218;6.548;2022-07-22T04:34:03;7.93;;;2.78;;
51901;SDS011;37929;53.218;6.548;2022-07-22T04:36:32;6.97;;;2.15;;
51901;SDS011;37929;53.218;6.548;2022-07-22T04:38:58;9.07;;;2.70;;
51901;SDS011;37929;53.218;6.548;2022-07-22T04:41:23;7.93;;;2.40;;
51901;SDS011;37929;53.218;6.548;2022-07-22T04:43:49;9.98;;;2.42;;
51901;SDS011;37929;53.218;6.548;2022-07-22T04:46:15;8.25;;;2.55;;
51901;SDS011;37929;53.218;6.548;2022-07-22T04:48:40;9.38;;;2.50;;
51901;SDS011;37929;53.218;6.548;2022-07-22T04:51:06;7.10;;;2.03;;
51901;SDS011;37929;53.218;6.548;2022-07-22T04:53:32;6.40;;;2.35;;
51901;SDS011;37929;53.218;6.548;2022-07-22T04:56:01;9.20;;;2.28;;
51901;SDS011;37929;53.218;6.548;2022-07-22T04:58:26;8.57;;;2.40;;
51901;SDS011;37929;53.218;6.548;2022-07-22T05:00:52;7.93;;;2.15;;
51901;SDS011;37929;53.218;6.548;2022-07-22T05:03:18;6.07;;;2.10;;
51901;SDS011;37929;53.218;6.548;2022-07-22T05:05:44;5.85;;;2.08;;
51901;SDS011;37929;53.218;6.548;2022-07-22T05:08:10;4.25;;;2.20;;
51901;SDS011;37929;53.218;6.548;2022-07-22T05:10:40;7.50;;;2.10;;
51901;SDS011;37929;53.218;6.548;2022-07-22T05:13:08;6.15;;;2.00;;
51901;SDS011;37929;53.218;6.548;2022-07-22T05:15:34;4.43;;;1.80;;
51901;SDS011;37929;53.218;6.548;2022-07-22T05:18:00;6.78;;;2.30;;
51901;SDS011;37929;53.218;6.548;2022-07-22T05:20:28;5.55;;;1.92;;
51901;SDS011;37929;53.218;6.548;2022-07-22T05:22:57;8.63;;;2.10;;
51901;SDS011;37929;53.218;6.548;2022-07-22T05:25:23;4.55;;;1.90;;
51901;SDS011;37929;53.218;6.548;2022-07-22T05:27:50;3.55;;;2.00;;
51901;SDS011;37929;53.218;6.548;2022-07-22T05:30:18;7.18;;;2.05;;
51901;SDS011;37929;53.218;6.548;2022-07-22T05:32:44;7.55;;;2.28;;
51901;SDS011;37929;53.218;6.548;2022-07-22T05:35:09;4.35;;;2.30;;
51901;SDS011;37929;53.218;6.548;2022-07-22T05:37:35;6.90;;;2.20;;
51901;SDS011;37929;53.218;6.548;2022-07-22T05:40:01;6.88;;;2.00;;
51901;SDS011;37929;53.218;6.548;2022-07-22T05:42:36;4.88;;;1.90;;
51901;SDS011;37929;53.218;6.548;2022-07-22T05:45:02;6.38;;;2.10;;
51901;SDS011;37929;53.218;6.548;2022-07-22T05:47:28;4.95;;;1.88;;
51901;SDS011;37929;53.218;6.548;2022-07-22T05:49:54;5.93;;;2.15;;
51901;SDS011;37929;53.218;6.548;2022-07-22T05:52:20;7.03;;;2.40;;
51901;SDS011;37929;53.218;6.548;2022-07-22T05:54:46;6.32;;;2.30;;
51901;SDS011;37929;53.218;6.548;2022-07-22T05:57:21;7.25;;;2.13;;
51901;SDS011;37929;53.218;6.548;2022-07-22T05:59:51;7.75;;;2.38;;
51901;SDS011;37929;53.218;6.548;2022-07-22T06:02:16;5.45;;;2.03;;
51901;SDS011;37929;53.218;6.548;2022-07-22T06:04:42;5.30;;;1.80;;
51901;SDS011;37929;53.218;6.548;2022-07-22T06:07:08;7.20;;;2.40;;
51901;SDS011;37929;53.218;6.548;2022-07-22T06:09:34;3.63;;;2.13;;
51901;SDS011;37929;53.218;6.548;2022-07-22T06:12:03;6.50;;;2.30;;
51901;SDS011;37929;53.218;6.548;2022-07-22T06:14:41;5.57;;;1.90;;
51901;SDS011;37929;53.218;6.548;2022-07-22T06:17:11;6.55;;;2.03;;
51901;SDS011;37929;53.218;6.548;2022-07-22T06:19:40;6.57;;;1.80;;
51901;SDS011;37929;53.218;6.548;2022-07-22T06:25:09;9.02;;;2.50;;
51901;SDS011;37929;53.218;6.548;2022-07-22T06:27:35;6.03;;;2.30;;
51901;SDS011;37929;53.218;6.548;2022-07-22T06:30:04;6.22;;;1.95;;
51901;SDS011;37929;53.218;6.548;2022-07-22T06:32:39;6.77;;;2.60;;
51901;SDS011;37929;53.218;6.548;2022-07-22T06:35:10;10.25;;;2.60;;
51901;SDS011;37929;53.218;6.548;2022-07-22T06:37:39;4.32;;;1.85;;
51901;SDS011;37929;53.218;6.548;2022-07-22T06:40:11;8.10;;;2.35;;
51901;SDS011;37929;53.218;6.548;2022-07-22T06:42:37;10.18;;;2.25;;
51901;SDS011;37929;53.218;6.548;2022-07-22T06:47:59;6.25;;;2.25;;
51901;SDS011;37929;53.218;6.548;2022-07-22T06:50:41;6.53;;;2.10;;
51901;SDS011;37929;53.218;6.548;2022-07-22T06:53:07;3.83;;;1.65;;
51901;SDS011;37929;53.218;6.548;2022-07-22T06:55:36;4.88;;;2.15;;
51901;SDS011;37929;53.218;6.548;2022-07-22T06:58:05;4.68;;;1.80;;
51901;SDS011;37929;53.218;6.548;2022-07-22T07:00:34;4.05;;;1.90;;
51901;SDS011;37929;53.218;6.548;2022-07-22T07:03:09;4.10;;;1.88;;
51901;SDS011;37929;53.218;6.548;2022-07-22T07:05:35;4.88;;;1.85;;
51901;SDS011;37929;53.218;6.548;2022-07-22T07:08:01;6.75;;;2.03;;
51901;SDS011;37929;53.218;6.548;2022-07-22T07:10:27;5.70;;;1.90;;
51901;SDS011;37929;53.218;6.548;2022-07-22T07:12:56;4.78;;;1.77;;
51901;SDS011;37929;53.218;6.548;2022-07-22T07:15:23;6.75;;;1.70;;
51901;SDS011;37929;53.218;6.548;2022-07-22T07:17:55;6.35;;;1.67;;
51901;SDS011;37929;53.218;6.548;2022-07-22T07:20:22;5.70;;;1.85;;
51901;SDS011;37929;53.218;6.548;2022-07-22T07:22:59;4.53;;;1.90;;
51901;SDS011;37929;53.218;6.548;2022-07-22T07:25:27;4.78;;;1.70;;
51901;SDS011;37929;53.218;6.548;2022-07-22T07:27:53;5.57;;;1.90;;
51901;SDS011;37929;53.218;6.548;2022-07-22T07:30:19;4.00;;;1.92;;
51901;SDS011;37929;53.218;6.548;2022-07-22T07:32:45;3.65;;;1.52;;
51901;SDS011;37929;53.218;6.548;2022-07-22T07:35:11;4.88;;;1.70;;
51901;SDS011;37929;53.218;6.548;2022-07-22T07:37:37;4.88;;;1.73;;
51901;SDS011;37929;53.218;6.548;2022-07-22T07:40:10;3.40;;;1.50;;
51901;SDS011;37929;53.218;6.548;2022-07-22T07:42:42;4.30;;;1.55;;
51901;SDS011;37929;53.218;6.548;2022-07-22T07:45:08;6.90;;;1.83;;
51901;SDS011;37929;53.218;6.548;2022-07-22T07:47:34;3.95;;;1.60;;
51901;SDS011;37929;53.218;6.548;2022-07-22T07:50:01;5.88;;;1.60;;
51901;SDS011;37929;53.218;6.548;2022-07-22T07:52:28;6.25;;;2.00;;
51901;SDS011;37929;53.218;6.548;2022-07-22T07:54:54;5.25;;;1.60;;
51901;SDS011;37929;53.218;6.548;2022-07-22T07:57:21;3.70;;;1.70;;
51901;SDS011;37929;53.218;6.548;2022-07-22T07:59:49;3.47;;;1.63;;
51901;SDS011;37929;53.218;6.548;2022-07-22T08:02:15;4.60;;;1.70;;
51901;SDS011;37929;53.218;6.548;2022-07-22T08:04:41;6.57;;;1.83;;
51901;SDS011;37929;53.218;6.548;2022-07-22T08:07:10;2.78;;;1.48;;
51901;SDS011;37929;53.218;6.548;2022-07-22T08:09:36;5.03;;;1.65;;
51901;SDS011;37929;53.218;6.548;2022-07-22T08:12:04;2.88;;;1.42;;
51901;SDS011;37929;53.218;6.548;2022-07-22T08:14:33;3.42;;;1.73;;
51901;SDS011;37929;53.218;6.548;2022-07-22T08:17:00;3.80;;;1.48;;
51901;SDS011;37929;53.218;6.548;2022-07-22T08:19:35;5.22;;;1.80;;
51901;SDS011;37929;53.218;6.548;2022-07-22T08:22:01;3.53;;;1.52;;
51901;SDS011;37929;53.218;6.548;2022-07-22T08:24:27;5.55;;;1.80;;
51901;SDS011;37929;53.218;6.548;2022-07-22T08:26:59;4.90;;;1.85;;
51901;SDS011;37929;53.218;6.548;2022-07-22T08:29:28;5.15;;;1.52;;
51901;SDS011;37929;53.218;6.548;2022-07-22T08:31:59;5.63;;;1.92;;
51901;SDS011;37929;53.218;6.548;2022-07-22T08:34:35;4.53;;;1.65;;
51901;SDS011;37929;53.218;6.548;2022-07-22T08:37:11;4.60;;;1.70;;
51901;SDS011;37929;53.218;6.548;2022-07-22T08:39:40;8.50;;;2.75;;
51901;SDS011;37929;53.218;6.548;2022-07-22T08:42:27;3.35;;;1.60;;
51901;SDS011;37929;53.218;6.548;2022-07-22T08:45:14;9.55;;;1.80;;
51901;SDS011;37929;53.218;6.548;2022-07-22T08:48:20;6.40;;;1.92;;
51901;SDS011;37929;53.218;6.548;2022-07-22T08:51:16;7.03;;;1.80;;
51901;SDS011;37929;53.218;6.548;2022-07-22T08:54:09;3.97;;;1.50;;
51901;SDS011;37929;53.218;6.548;2022-07-22T08:56:48;7.63;;;1.60;;
51901;SDS011;37929;53.218;6.548;2022-07-22T08:59:28;4.07;;;1.70;;
51901;SDS011;37929;53.218;6.548;2022-07-22T09:02:01;4.72;;;1.73;;
51901;SDS011;37929;53.218;6.548;2022-07-22T09:05:19;5.93;;;1.70;;
51901;SDS011;37929;53.218;6.548;2022-07-22T09:07:38;5.40;;;1.55;;
51901;SDS011;37929;53.218;6.548;2022-07-22T09:10:12;3.55;;;1.50;;
51901;SDS011;37929;53.218;6.548;2022-07-22T09:12:50;6.30;;;1.90;;
51901;SDS011;37929;53.218;6.548;2022-07-22T09:15:33;8.70;;;2.03;;
51901;SDS011;37929;53.218;6.548;2022-07-22T09:18:09;3.67;;;1.50;;
51901;SDS011;37929;53.218;6.548;2022-07-22T09:20:40;6.13;;;1.98;;
51901;SDS011;37929;53.218;6.548;2022-07-22T09:23:39;5.65;;;1.67;;
51901;SDS011;37929;53.218;6.548;2022-07-22T09:26:37;5.35;;;1.75;;
51901;SDS011;37929;53.218;6.548;2022-07-22T09:29:34;3.70;;;1.40;;
51901;SDS011;37929;53.218;6.548;2022-07-22T09:32:43;6.75;;;1.52;;
51901;SDS011;37929;53.218;6.548;2022-07-22T09:35:38;4.53;;;1.45;;
51901;SDS011;37929;53.218;6.548;2022-07-22T09:38:10;4.28;;;1.45;;
51901;SDS011;37929;53.218;6.548;2022-07-22T09:40:48;5.47;;;1.98;;
51901;SDS011;37929;53.218;6.548;2022-07-22T09:43:32;6.50;;;1.90;;
51901;SDS011;37929;53.218;6.548;2022-07-22T09:46:02;5.13;;;1.60;;
51901;SDS011;37929;53.218;6.548;2022-07-22T09:49:00;4.07;;;1.75;;
51901;SDS011;37929;53.218;6.548;2022-07-22T09:52:09;9.63;;;2.35;;
51901;SDS011;37929;53.218;6.548;2022-07-22T09:54:45;4.25;;;1.50;;
51901;SDS011;37929;53.218;6.548;2022-07-22T09:57:26;6.35;;;1.80;;
51901;SDS011;37929;53.218;6.548;2022-07-22T10:06:25;3.97;;;1.20;;
51901;SDS011;37929;53.218;6.548;2022-07-22T10:16:29;3.58;;;1.20;;
51901;SDS011;37929;53.218;6.548;2022-07-22T10:18:58;4.65;;;1.55;;
51901;SDS011;37929;53.218;6.548;2022-07-22T10:21:32;4.70;;;1.30;;
51901;SDS011;37929;53.218;6.548;2022-07-22T10:24:30;3.30;;;1.30;;
51901;SDS011;37929;53.218;6.548;2022-07-22T10:27:07;3.78;;;1.20;;
51901;SDS011;37929;53.218;6.548;2022-07-22T10:48:11;3.13;;;1.20;;
51901;SDS011;37929;53.218;6.548;2022-07-22T10:51:04;4.85;;;1.27;;
51901;SDS011;37929;53.218;6.548;2022-07-22T10:57:32;3.00;;;1.20;;
51901;SDS011;37929;53.218;6.548;2022-07-22T11:00:34;2.10;;;1.10;;
51901;SDS011;37929;53.218;6.548;2022-07-22T11:03:50;3.72;;;1.40;;
51901;SDS011;37929;53.218;6.548;2022-07-22T11:07:02;2.80;;;1.10;;
51901;SDS011;37929;53.218;6.548;2022-07-22T11:09:37;5.35;;;1.73;;
51901;SDS011;37929;53.218;6.548;2022-07-22T11:12:12;3.25;;;1.30;;
51901;SDS011;37929;53.218;6.548;2022-07-22T11:15:00;4.18;;;1.30;;
51901;SDS011;37929;53.218;6.548;2022-07-22T11:17:37;3.28;;;1.20;;
51901;SDS011;37929;53.218;6.548;2022-07-22T11:23:13;2.85;;;1.13;;
51901;SDS011;37929;53.218;6.548;2022-07-22T11:25:44;2.50;;;1.10;;
51901;SDS011;37929;53.218;6.548;2022-07-22T11:32:20;3.53;;;1.30;;
51901;SDS011;37929;53.218;6.548;2022-07-22T11:35:32;2.55;;;1.20;;
51901;SDS011;37929;53.218;6.548;2022-07-22T11:45:11;3.40;;;1.20;;
51901;SDS011;37929;53.218;6.548;2022-07-22T11:48:00;3.17;;;1.10;;
51901;SDS011;37929;53.218;6.548;2022-07-22T11:51:45;2.22;;;1.00;;
51901;SDS011;37929;53.218;6.548;2022-07-22T11:55:04;2.20;;;1.13;;
51901;SDS011;37929;53.218;6.548;2022-07-22T11:57:14;2.00;;;1.00;;
51901;SDS011;37929;53.218;6.548;2022-07-22T11:59:50;9.57;;;1.98;;
51901;SDS011;37929;53.218;6.548;2022-07-22T12:02:38;2.53;;;1.20;;
51901;SDS011;37929;53.218;6.548;2022-07-22T12:05:09;1.85;;;1.10;;
51901;SDS011;37929;53.218;6.548;2022-07-22T12:07:37;2.55;;;1.05;;
51901;SDS011;37929;53.218;6.548;2022-07-22T12:10:12;3.35;;;0.90;;
51901;SDS011;37929;53.218;6.548;2022-07-22T12:12:59;3.53;;;1.10;;
51901;SDS011;37929;53.218;6.548;2022-07-22T12:15:33;3.25;;;1.23;;
51901;SDS011;37929;53.218;6.548;2022-07-22T12:21:27;2.55;;;0.90;;
51901;SDS011;37929;53.218;6.548;2022-07-22T12:24:51;2.58;;;0.90;;
51901;SDS011;37929;53.218;6.548;2022-07-22T12:27:37;2.75;;;0.98;;
51901;SDS011;37929;53.218;6.548;2022-07-22T12:30:12;2.03;;;1.10;;
51901;SDS011;37929;53.218;6.548;2022-07-22T12:32:49;5.10;;;0.88;;
51901;SDS011;37929;53.218;6.548;2022-07-22T12:35:29;3.30;;;0.90;;
51901;SDS011;37929;53.218;6.548;2022-07-22T12:38:19;2.15;;;0.95;;
51901;SDS011;37929;53.218;6.548;2022-07-22T12:41:25;1.45;;;1.00;;
51901;SDS011;37929;53.218;6.548;2022-07-22T12:43:58;2.30;;;0.90;;
51901;SDS011;37929;53.218;6.548;2022-07-22T12:53:29;1.92;;;0.98;;
51901;SDS011;37929;53.218;6.548;2022-07-22T12:58:56;2.65;;;1.05;;
51901;SDS011;37929;53.218;6.548;2022-07-22T13:01:22;2.00;;;1.10;;
51901;SDS011;37929;53.218;6.548;2022-07-22T13:03:51;2.60;;;1.05;;
51901;SDS011;37929;53.218;6.548;2022-07-22T13:06:20;2.85;;;1.17;;
51901;SDS011;37929;53.218;6.548;2022-07-22T13:08:46;3.83;;;1.10;;
51901;SDS011;37929;53.218;6.548;2022-07-22T13:11:12;1.77;;;1.00;;
51901;SDS011;37929;53.218;6.548;2022-07-22T13:13:59;1.60;;;0.95;;
51901;SDS011;37929;53.218;6.548;2022-07-22T13:24:19;1.90;;;1.00;;
51901;SDS011;37929;53.218;6.548;2022-07-22T13:28:11;5.32;;;1.50;;
51901;SDS011;37929;53.218;6.548;2022-07-22T13:31:42;3.67;;;1.23;;
51901;SDS011;37929;53.218;6.548;2022-07-22T13:37:43;4.57;;;1.30;;
51901;SDS011;37929;53.218;6.548;2022-07-22T13:40:09;3.25;;;1.20;;
51901;SDS011;37929;53.218;6.548;2022-07-22T13:43:01;2.75;;;1.20;;
51901;SDS011;37929;53.218;6.548;2022-07-22T13:45:29;2.83;;;1.23;;
51901;SDS011;37929;53.218;6.548;2022-07-22T13:55:11;4.10;;;1.52;;
51901;SDS011;37929;53.218;6.548;2022-07-22T13:58:11;4.75;;;1.40;;
51901;SDS011;37929;53.218;6.548;2022-07-22T14:01:00;4.15;;;1.40;;
51901;SDS011;37929;53.218;6.548;2022-07-22T14:03:28;3.10;;;1.33;;
51901;SDS011;37929;53.218;6.548;2022-07-22T14:05:57;4.28;;;1.30;;
51901;SDS011;37929;53.218;6.548;2022-07-22T14:08:29;6.30;;;1.42;;
51901;SDS011;37929;53.218;6.548;2022-07-22T14:10:56;3.50;;;1.23;;
51901;SDS011;37929;53.218;6.548;2022-07-22T14:16:44;2.80;;;1.35;;
51901;SDS011;37929;53.218;6.548;2022-07-22T14:21:58;2.80;;;1.10;;
51901;SDS011;37929;53.218;6.548;2022-07-22T14:24:32;3.50;;;1.30;;
51901;SDS011;37929;53.218;6.548;2022-07-22T14:27:13;3.00;;;1.30;;
51901;SDS011;37929;53.218;6.548;2022-07-22T14:29:41;3.35;;;1.35;;
51901;SDS011;37929;53.218;6.548;2022-07-22T14:32:15;2.03;;;1.20;;
51901;SDS011;37929;53.218;6.548;2022-07-22T14:34:41;2.70;;;1.35;;
51901;SDS011;37929;53.218;6.548;2022-07-22T14:37:09;3.25;;;1.60;;
51901;SDS011;37929;53.218;6.548;2022-07-22T14:39:38;5.88;;;1.50;;
51901;SDS011;37929;53.218;6.548;2022-07-22T14:42:07;6.03;;;1.25;;
51901;SDS011;37929;53.218;6.548;2022-07-22T14:44:35;4.35;;;1.40;;
51901;SDS011;37929;53.218;6.548;2022-07-22T14:49:50;3.83;;;1.10;;
51901;SDS011;37929;53.218;6.548;2022-07-22T14:52:21;3.75;;;1.35;;
51901;SDS011;37929;53.218;6.548;2022-07-22T14:54:49;3.60;;;1.30;;
51901;SDS011;37929;53.218;6.548;2022-07-22T14:57:15;4.43;;;1.40;;
51901;SDS011;37929;53.218;6.548;2022-07-22T14:59:41;3.47;;;1.30;;
51901;SDS011;37929;53.218;6.548;2022-07-22T15:02:09;4.50;;;1.55;;
51901;SDS011;37929;53.218;6.548;2022-07-22T15:04:35;2.53;;;1.20;;
51901;SDS011;37929;53.218;6.548;2022-07-22T15:07:00;2.83;;;1.23;;
51901;SDS011;37929;53.218;6.548;2022-07-22T15:09:27;2.83;;;1.35;;
51901;SDS011;37929;53.218;6.548;2022-07-22T15:11:53;2.97;;;1.27;;
51901;SDS011;37929;53.218;6.548;2022-07-22T15:14:19;3.25;;;1.42;;
51901;SDS011;37929;53.218;6.548;2022-07-22T15:16:45;5.03;;;1.58;;
51901;SDS011;37929;53.218;6.548;2022-07-22T15:19:11;1.95;;;1.13;;
51901;SDS011;37929;53.218;6.548;2022-07-22T15:21:37;3.47;;;1.70;;
51901;SDS011;37929;53.218;6.548;2022-07-22T15:24:08;3.22;;;1.40;;
51901;SDS011;37929;53.218;6.548;2022-07-22T15:26:34;2.85;;;1.35;;
51901;SDS011;37929;53.218;6.548;2022-07-22T15:29:03;2.47;;;1.20;;
51901;SDS011;37929;53.218;6.548;2022-07-22T15:31:29;2.90;;;1.50;;
51901;SDS011;37929;53.218;6.548;2022-07-22T15:33:57;3.30;;;1.30;;
51901;SDS011;37929;53.218;6.548;2022-07-22T15:36:23;3.67;;;1.20;;
51901;SDS011;37929;53.218;6.548;2022-07-22T15:38:50;3.53;;;1.40;;
51901;SDS011;37929;53.218;6.548;2022-07-22T15:41:16;3.90;;;1.38;;
51901;SDS011;37929;53.218;6.548;2022-07-22T15:43:45;3.30;;;1.40;;
51901;SDS011;37929;53.218;6.548;2022-07-22T15:46:10;10.73;;;2.03;;
51901;SDS011;37929;53.218;6.548;2022-07-22T15:48:36;3.97;;;1.35;;
51901;SDS011;37929;53.218;6.548;2022-07-22T15:51:04;5.40;;;2.60;;
51901;SDS011;37929;53.218;6.548;2022-07-22T15:53:31;4.63;;;3.10;;
51901;SDS011;37929;53.218;6.548;2022-07-22T15:56:03;3.67;;;1.40;;
51901;SDS011;37929;53.218;6.548;2022-07-22T15:58:29;3.00;;;1.55;;
51901;SDS011;37929;53.218;6.548;2022-07-22T16:01:14;3.55;;;1.30;;
51901;SDS011;37929;53.218;6.548;2022-07-22T16:03:40;4.65;;;1.23;;
51901;SDS011;37929;53.218;6.548;2022-07-22T16:06:05;3.10;;;1.40;;
51901;SDS011;37929;53.218;6.548;2022-07-22T16:08:31;4.70;;;1.60;;
51901;SDS011;37929;53.218;6.548;2022-07-22T16:10:57;6.70;;;2.25;;
51901;SDS011;37929;53.218;6.548;2022-07-22T16:13:28;8.27;;;2.05;;
51901;SDS011;37929;53.218;6.548;2022-07-22T16:15:54;3.85;;;1.52;;
51901;SDS011;37929;53.218;6.548;2022-07-22T16:18:19;29.83;;;3.25;;
51901;SDS011;37929;53.218;6.548;2022-07-22T16:20:45;7.22;;;1.65;;
51901;SDS011;37929;53.218;6.548;2022-07-22T16:23:11;6.20;;;1.50;;
51901;SDS011;37929;53.218;6.548;2022-07-22T16:25:39;2.40;;;1.35;;
51901;SDS011;37929;53.218;6.548;2022-07-22T16:28:05;3.00;;;1.60;;
51901;SDS011;37929;53.218;6.548;2022-07-22T16:30:31;3.70;;;1.58;;
51901;SDS011;37929;53.218;6.548;2022-07-22T16:32:57;4.05;;;2.08;;
51901;SDS011;37929;53.218;6.548;2022-07-22T16:35:22;3.83;;;2.15;;
51901;SDS011;37929;53.218;6.548;2022-07-22T16:37:51;4.93;;;1.30;;
51901;SDS011;37929;53.218;6.548;2022-07-22T16:40:17;3.15;;;1.50;;
51901;SDS011;37929;53.218;6.548;2022-07-22T16:42:43;2.35;;;1.58;;
51901;SDS011;37929;53.218;6.548;2022-07-22T16:45:09;3.17;;;1.30;;
51901;SDS011;37929;53.218;6.548;2022-07-22T16:47:36;4.25;;;1.40;;
51901;SDS011;37929;53.218;6.548;2022-07-22T16:50:01;2.97;;;1.20;;
51901;SDS011;37929;53.218;6.548;2022-07-22T16:52:28;5.28;;;2.78;;
51901;SDS011;37929;53.218;6.548;2022-07-22T16:54:54;4.05;;;1.80;;
51901;SDS011;37929;53.218;6.548;2022-07-22T16:57:20;4.32;;;1.33;;